ニジネヴァルトフスク の空港の天気 - METARとTAF

Nizhnevartovsk ( USNN / NJC ) - ロシア ニジネヴァルトフスク
飛行場実況気象(Metar)
観測時間08/11 10:30 YEKT (08/11 05:30 UTC)
風向・風速南南東 6m/s
視程10km以上
天気現象
なし
気温27℃
湿度48%
気圧999hPa
METARUSNN 110530Z 15006MPS CAVOK 27/15 Q0999 R21/0///65 NOSIG RMK QFE745
過去の天気等 Google飛行場航空写真 Wunderground天気予報

過去48時間のMETAR

飛行場予報(TAF)
発表時間: 8/11 10:00 YEKT (8/11 05:00 UTC)
予報対象時間: 11日11時 YEKT ~ 12日11時 YEKT
風向・風速南東 5m/s 瞬間風速 12m/s
視程10km以上
全天の4割程度の雲 雲底高度 610m
11日11時 YEKT ~ 11日20時 YEKT に一時的に
風向・風速不定 18m/s
視程5000m
天気現象弱い雷雨ひょう スコール
全天の4割程度の積乱雲 雲底高度 460m
TAF COR USNN 110500Z 1106/1206 14005G12MPS 9999 SCT020
TEMPO 1106/1115 VRB18MPS 5000 -TSRAGR SQ SCT015CB